Time;durP1;ratioP1;P1;durP2;ratioP2;P2;SDS_P1;SDS_P2;PMS_P1;PMS_P2;Temp;Humidity;BMP_temperature;BMP_pressure;BME280_temperature;BME280_humidity;BME280_pressure;Samples;Min_cycle;Max_cycle;Signal;HPM_P1;HPM_P2
2023/05/26 04:00:46;;;;;;;12.35;2.25;;;8.60;99.90;;;;;;5820066;23;20235;-74
2023/05/26 04:03:12;;;;;;;2.40;2.20;;;8.70;99.90;;;;;;4968467;28;20287;-73
2023/05/26 04:05:39;;;;;;;5.57;1.70;;;8.70;99.90;;;;;;4963758;28;20228;-73
2023/05/26 04:08:06;;;;;;;5.20;0.98;;;8.70;99.90;;;;;;4960461;28;20646;-74
2023/05/26 04:10:32;;;;;;;1.95;1.85;;;8.70;99.90;;;;;;4959828;28;20232;-74
2023/05/26 04:12:59;;;;;;;4.85;0.35;;;8.80;99.90;;;;;;4947406;28;20237;-74
2023/05/26 04:15:29;;;;;;;1.35;0.90;;;8.70;99.90;;;;;;4951586;28;20608;-74
2023/05/26 04:17:57;;;;;;;8.68;2.10;;;8.80;99.90;;;;;;4952739;28;20213;-74
2023/05/26 04:20:23;;;;;;;10.90;1.60;;;8.80;99.90;;;;;;4950174;28;20280;-74
2023/05/26 04:22:50;;;;;;;3.20;1.65;;;8.80;99.90;;;;;;4951685;28;20216;-73
2023/05/26 04:25:17;;;;;;;3.40;1.50;;;9.00;99.90;;;;;;4950000;28;20295;-74
2023/05/26 04:27:43;;;;;;;1.25;1.20;;;9.40;99.90;;;;;;4952371;28;20209;-74
2023/05/26 04:30:10;;;;;;;1.65;1.33;;;9.80;99.90;;;;;;4946725;28;20233;-74
2023/05/26 04:32:37;;;;;;;4.00;1.73;;;10.20;99.90;;;;;;4945616;29;20220;-73
2023/05/26 04:35:06;;;;;;;21.67;2.58;;;10.50;99.90;;;;;;4943343;29;20304;-74
2023/05/26 04:37:33;;;;;;;6.55;1.33;;;10.90;99.90;;;;;;4943612;29;20206;-74
2023/05/26 04:40:00;;;;;;;9.97;1.90;;;11.30;99.90;;;;;;4952385;29;20236;-74
2023/05/26 04:42:27;;;;;;;2.23;0.57;;;11.60;99.90;;;;;;4952307;28;20572;-74
2023/05/26 04:44:54;;;;;;;3.90;1.53;;;11.80;99.90;;;;;;4951403;28;20999;-74
2023/05/26 04:47:22;;;;;;;2.37;1.30;;;12.10;99.90;;;;;;4952656;28;20844;-74
2023/05/26 04:49:48;;;;;;;3.73;0.77;;;12.50;99.90;;;;;;4951558;28;20500;-74
2023/05/26 04:52:17;;;;;;;1.90;0.60;;;12.70;99.90;;;;;;4942911;28;20518;-74
2023/05/26 04:54:43;;;;;;;4.53;2.00;;;12.90;99.90;;;;;;4946226;28;20469;-73
2023/05/26 04:57:10;;;;;;;4.63;1.87;;;13.10;99.90;;;;;;4946949;29;20992;-73
2023/05/26 04:59:38;;;;;;;1.13;0.63;;;13.10;99.90;;;;;;4938556;28;20469;-73
2023/05/26 05:02:05;;;;;;;1.13;1.03;;;13.40;99.90;;;;;;4949639;28;20586;-74
2023/05/26 05:04:32;;;;;;;1.20;1.20;;;13.40;99.90;;;;;;4939612;29;20486;-73
2023/05/26 05:06:59;;;;;;;4.23;1.17;;;13.30;99.90;;;;;;4945782;28;20629;-73
2023/05/26 05:09:27;;;;;;;2.53;1.20;;;13.50;99.90;;;;;;4943725;28;20473;-74
2023/05/26 05:11:53;;;;;;;7.73;1.97;;;13.60;99.90;;;;;;4945468;28;20801;-73
2023/05/26 05:14:20;;;;;;;4.13;1.23;;;13.80;99.90;;;;;;4939142;28;20474;-74
2023/05/26 05:16:47;;;;;;;2.40;1.00;;;13.90;99.90;;;;;;4949413;28;20507;-74
2023/05/26 05:19:14;;;;;;;4.47;1.13;;;14.10;99.90;;;;;;4938632;28;20979;-74
2023/05/26 05:21:41;;;;;;;1.83;0.90;;;14.20;99.90;;;;;;4949103;28;20484;-74
2023/05/26 05:24:07;;;;;;;8.70;1.37;;;14.30;99.90;;;;;;4956100;28;20472;-75
2023/05/26 05:26:37;;;;;;;4.93;1.00;;;14.60;99.90;;;;;;4952152;28;20469;-74
2023/05/26 05:29:03;;;;;;;2.00;1.70;;;14.80;99.90;;;;;;4948966;28;20548;-74
2023/05/26 05:31:30;;;;;;;1.63;1.03;;;14.70;99.90;;;;;;4946836;28;20489;-74
2023/05/26 05:33:57;;;;;;;1.70;0.93;;;14.60;99.90;;;;;;4937326;28;20505;-74
2023/05/26 05:36:24;;;;;;;8.50;1.23;;;14.60;99.90;;;;;;4938848;29;20473;-74
2023/05/26 05:38:51;;;;;;;2.13;1.07;;;14.60;99.90;;;;;;4942596;28;20566;-73
2023/05/26 05:41:17;;;;;;;2.50;1.17;;;14.00;99.90;;;;;;4949519;28;20485;-75
2023/05/26 05:43:45;;;;;;;5.07;1.07;;;13.50;99.90;;;;;;4948642;28;20473;-74
2023/05/26 05:46:12;;;;;;;1.50;0.90;;;13.20;99.90;;;;;;4947855;28;20954;-74
2023/05/26 05:48:39;;;;;;;2.87;1.27;;;13.20;99.90;;;;;;4941668;28;20962;-73
2023/05/26 05:51:06;;;;;;;1.43;0.57;;;13.10;99.90;;;;;;4947408;28;20528;-74
2023/05/26 05:53:32;;;;;;;5.63;2.30;;;12.80;99.90;;;;;;4940351;28;20499;-73
2023/05/26 05:56:00;;;;;;;1.27;1.17;;;13.00;99.90;;;;;;4951546;28;20472;-74
2023/05/26 05:58:26;;;;;;;4.80;1.80;;;13.40;99.90;;;;;;4942340;29;20462;-74
2023/05/26 06:00:54;;;;;;;0.67;0.67;;;13.80;99.90;;;;;;4946043;28;20501;-74
2023/05/26 06:03:21;;;;;;;3.30;1.33;;;14.10;99.90;;;;;;4942309;28;20481;-74
2023/05/26 06:05:47;;;;;;;1.60;0.73;;;14.50;99.90;;;;;;4941081;28;20522;-75
2023/05/26 06:08:14;;;;;;;2.80;1.20;;;14.60;99.90;;;;;;4944704;29;20471;-74
2023/05/26 06:10:41;;;;;;;2.17;1.00;;;15.10;99.90;;;;;;4942080;28;20499;-74
2023/05/26 06:13:07;;;;;;;1.73;1.30;;;15.20;99.90;;;;;;4948973;29;20473;-74
2023/05/26 06:15:34;;;;;;;2.63;1.33;;;15.40;99.90;;;;;;4943272;28;20996;-74
2023/05/26 06:18:02;;;;;;;3.53;1.30;;;15.80;99.90;;;;;;4948733;28;20473;-74
2023/05/26 06:20:29;;;;;;;1.43;1.33;;;16.10;99.90;;;;;;4935136;29;20953;-74
2023/05/26 06:22:55;;;;;;;5.40;1.53;;;16.50;99.90;;;;;;4945075;28;20468;-74
2023/05/26 06:25:22;;;;;;;3.57;2.40;;;16.80;99.90;;;;;;4937135;28;20534;-74
2023/05/26 06:27:49;;;;;;;1.80;1.20;;;17.00;99.90;;;;;;4939744;28;20556;-74
2023/05/26 06:30:16;;;;;;;0.53;0.53;;;16.90;99.90;;;;;;4947498;28;20482;-73
2023/05/26 06:32:42;;;;;;;0.80;0.77;;;17.30;99.90;;;;;;4946866;28;20614;-72
2023/05/26 06:35:12;;;;;;;2.80;1.63;;;17.30;99.90;;;;;;4951157;28;20497;-72
2023/05/26 06:37:39;;;;;;;1.80;0.97;;;17.00;99.90;;;;;;4947269;28;20478;-72
2023/05/26 06:40:06;;;;;;;1.20;1.20;;;16.90;99.90;;;;;;4947895;29;20570;-72
2023/05/26 06:42:33;;;;;;;1.40;1.03;;;16.60;99.90;;;;;;4945177;28;21269;-73
2023/05/26 06:44:59;;;;;;;2.43;1.60;;;16.60;99.90;;;;;;4939488;28;20556;-73
2023/05/26 06:47:26;;;;;;;0.80;0.80;;;16.90;99.90;;;;;;4946015;28;20472;-72
2023/05/26 06:49:53;;;;;;;3.90;1.60;;;17.40;99.90;;;;;;4954367;28;20469;-73
2023/05/26 06:52:21;;;;;;;1.60;0.73;;;17.50;99.90;;;;;;4951866;28;20588;-72
2023/05/26 06:54:48;;;;;;;2.60;1.33;;;17.50;99.90;;;;;;4939516;28;20465;-72
2023/05/26 06:57:14;;;;;;;6.17;1.50;;;17.40;99.90;;;;;;4946629;29;20474;-71
2023/05/26 06:59:42;;;;;;;4.57;1.07;;;17.70;99.90;;;;;;4947183;28;20473;-71
2023/05/26 07:02:08;;;;;;;1.30;1.20;;;17.40;99.90;;;;;;4942754;28;21000;-72
2023/05/26 07:04:35;;;;;;;2.00;1.20;;;16.90;99.90;;;;;;4945998;28;20544;-71
2023/05/26 07:07:02;;;;;;;1.30;1.13;;;17.40;99.90;;;;;;4944326;28;20501;-72
2023/05/26 07:09:30;;;;;;;1.73;0.73;;;17.60;99.90;;;;;;4949130;28;20486;-72
2023/05/26 07:11:57;;;;;;;1.40;1.07;;;18.10;99.90;;;;;;4949222;29;20523;-72
2023/05/26 07:14:23;;;;;;;2.33;1.33;;;18.30;99.90;;;;;;4950922;28;20479;-72
2023/05/26 07:16:50;;;;;;;1.57;0.60;;;18.40;99.90;;;;;;4952234;28;20473;-71
2023/05/26 07:19:17;;;;;;;2.00;1.37;;;18.60;99.90;;;;;;4945507;28;20507;-72
2023/05/26 07:21:43;;;;;;;1.57;1.07;;;18.70;99.90;;;;;;4937755;29;20572;-72
2023/05/26 07:24:10;;;;;;;2.13;1.97;;;18.90;99.90;;;;;;4943523;28;21106;-73
2023/05/26 07:26:38;;;;;;;0.83;0.80;;;19.00;99.90;;;;;;4951961;28;20847;-72
2023/05/26 07:29:04;;;;;;;4.57;1.10;;;18.50;99.90;;;;;;4946450;28;20468;-72
2023/05/26 07:31:31;;;;;;;4.93;1.23;;;18.50;99.90;;;;;;4947438;28;20496;-72
2023/05/26 07:33:58;;;;;;;2.23;1.40;;;18.20;99.90;;;;;;4948383;28;20894;-72
2023/05/26 07:36:25;;;;;;;4.80;1.07;;;17.70;99.90;;;;;;4952751;28;20946;-72
2023/05/26 07:38:51;;;;;;;2.87;1.27;;;17.80;99.90;;;;;;4943845;28;20471;-72
2023/05/26 07:41:18;;;;;;;2.93;1.13;;;18.30;99.90;;;;;;4943693;29;20488;-72
2023/05/26 07:43:46;;;;;;;5.33;1.30;;;18.50;99.90;;;;;;4944880;29;20547;-72
2023/05/26 07:46:13;;;;;;;2.40;1.37;;;18.90;99.90;;;;;;4935592;28;20482;-73
2023/05/26 07:48:39;;;;;;;3.90;1.20;;;19.30;99.90;;;;;;4944575;28;21007;-72
2023/05/26 07:51:06;;;;;;;3.03;1.50;;;19.50;99.90;;;;;;4949860;29;20509;-72
2023/05/26 07:53:34;;;;;;;1.03;1.03;;;19.30;99.90;;;;;;4946243;28;20911;-72
2023/05/26 07:56:01;;;;;;;1.00;0.80;;;19.00;99.90;;;;;;4947048;29;20518;-72
2023/05/26 07:58:28;;;;;;;2.23;1.53;;;18.60;99.90;;;;;;4942043;28;20475;-72
2023/05/26 08:00:56;;;;;;;2.13;1.43;;;18.00;99.90;;;;;;4951232;28;20849;-72
2023/05/26 08:03:22;;;;;;;1.50;1.40;;;17.80;99.90;;;;;;4948346;28;20479;-72
2023/05/26 08:06:04;;;;;;;0.80;0.80;;;17.90;99.90;;;;;;5078354;27;20571;-72
2023/05/26 08:08:30;;;;;;;2.37;1.60;;;18.10;99.90;;;;;;5082301;28;20997;-72
2023/05/26 08:10:57;;;;;;;1.13;0.63;;;18.30;99.90;;;;;;5075774;28;20489;-72
2023/05/26 08:13:24;;;;;;;1.33;1.23;;;17.90;99.90;;;;;;5073441;28;20512;-72
2023/05/26 08:15:50;;;;;;;3.00;1.00;;;18.00;99.90;;;;;;5086937;28;20571;-71
2023/05/26 08:18:17;;;;;;;1.47;1.20;;;17.60;99.90;;;;;;5077159;28;20467;-71
2023/05/26 08:20:43;;;;;;;5.67;1.10;;;17.80;99.90;;;;;;5080859;28;20978;-71
2023/05/26 08:23:11;;;;;;;1.80;1.37;;;17.30;99.90;;;;;;5089797;22;20487;-72
2023/05/26 08:25:38;;;;;;;4.00;1.40;;;17.40;99.90;;;;;;5043113;28;20535;-71
2023/05/26 08:28:05;;;;;;;1.33;1.23;;;17.80;99.90;;;;;;5045842;28;20503;-71
2023/05/26 08:30:31;;;;;;;2.77;0.93;;;18.00;99.90;;;;;;5046182;28;20495;-70
2023/05/26 08:32:58;;;;;;;1.90;1.30;;;18.10;99.90;;;;;;5047768;28;20484;-70
2023/05/26 08:35:28;;;;;;;1.30;1.20;;;17.90;99.90;;;;;;5039617;28;20508;-71
2023/05/26 08:37:54;;;;;;;1.80;1.10;;;17.30;99.90;;;;;;5054539;28;20490;-73
2023/05/26 08:40:22;;;;;;;1.53;1.20;;;16.70;99.90;;;;;;5045248;28;20480;-71
2023/05/26 08:42:56;;;;;;;0.80;0.73;;;16.70;99.90;;;;;;5044458;28;21000;-64
2023/05/26 08:45:24;;;;;;;5.23;1.83;;;17.00;99.90;;;;;;5058887;28;20487;-63
2023/05/26 08:47:51;;;;;;;2.10;1.00;;;17.20;99.90;;;;;;5067410;28;20463;-64
2023/05/26 08:50:19;;;;;;;2.50;1.47;;;16.90;99.90;;;;;;5039285;28;20464;-65
2023/05/26 08:52:48;;;;;;;1.90;1.30;;;16.90;99.90;;;;;;5041924;28;20559;-64
2023/05/26 08:55:15;;;;;;;4.00;0.90;;;17.00;99.90;;;;;;5046006;28;20522;-65
2023/05/26 08:57:43;;;;;;;3.93;1.20;;;16.80;99.90;;;;;;5052257;28;20464;-65
2023/05/26 09:00:12;;;;;;;1.07;1.07;;;16.70;99.90;;;;;;5042529;28;20471;-64
2023/05/26 09:02:39;;;;;;;1.50;1.17;;;16.30;99.90;;;;;;5055886;28;20541;-64
2023/05/26 09:05:07;;;;;;;2.87;1.50;;;16.20;99.90;;;;;;5046725;28;20570;-64
2023/05/26 09:07:34;;;;;;;5.57;1.50;;;16.20;99.90;;;;;;5044589;28;20468;-64
2023/05/26 09:10:03;;;;;;;0.73;0.73;;;16.30;99.90;;;;;;5046750;28;20456;-68
2023/05/26 09:12:36;;;;;;;1.13;1.03;;;16.40;99.90;;;;;;5045097;28;20567;-68
2023/05/26 09:15:05;;;;;;;5.70;1.83;;;16.40;99.90;;;;;;5044856;28;20456;-68
2023/05/26 09:17:35;;;;;;;7.43;1.53;;;16.60;99.90;;;;;;5036481;28;20529;-68
2023/05/26 09:20:02;;;;;;;2.70;1.47;;;16.60;99.90;;;;;;5043029;28;20547;-63
2023/05/26 09:22:33;;;;;;;3.93;1.50;;;16.50;99.90;;;;;;5031601;28;20517;-64
2023/05/26 09:25:00;;;;;;;0.80;0.80;;;16.30;99.90;;;;;;5034737;28;20514;-65
2023/05/26 09:27:27;;;;;;;0.60;0.60;;;16.50;99.90;;;;;;5022065;28;20475;-71
2023/05/26 09:29:55;;;;;;;2.00;1.40;;;16.50;99.90;;;;;;5040948;28;20951;-72
2023/05/26 09:32:27;;;;;;;0.77;0.77;;;16.50;99.90;;;;;;5041497;28;20465;-72
2023/05/26 09:34:55;;;;;;;3.13;1.60;;;16.40;99.90;;;;;;5032822;28;20995;-72
2023/05/26 09:37:28;;;;;;;3.83;1.53;;;16.30;99.90;;;;;;5039193;28;20469;-72
2023/05/26 09:39:54;;;;;;;2.43;1.50;;;16.40;99.90;;;;;;5049230;28;20457;-72
2023/05/26 09:42:21;;;;;;;2.83;1.13;;;16.10;99.90;;;;;;5052780;28;20527;-71
2023/05/26 09:44:50;;;;;;;0.70;0.70;;;15.80;99.90;;;;;;5052201;28;20495;-71
2023/05/26 09:47:20;;;;;;;1.67;1.57;;;15.90;99.90;;;;;;5052745;28;20468;-72
2023/05/26 09:49:48;;;;;;;0.70;0.70;;;15.90;99.90;;;;;;5045813;28;20890;-72
2023/05/26 09:52:15;;;;;;;1.80;1.07;;;15.90;99.90;;;;;;5042192;28;20461;-72
2023/05/26 09:54:41;;;;;;;3.20;1.20;;;15.90;99.90;;;;;;5052294;28;20487;-72
2023/05/26 09:57:10;;;;;;;6.07;1.67;;;16.00;99.90;;;;;;5052641;28;20586;-72
2023/05/26 09:59:41;;;;;;;2.53;0.93;;;16.10;99.90;;;;;;5039978;28;20556;-72
2023/05/26 10:02:18;;;;;;;1.30;1.20;;;16.00;99.90;;;;;;5046051;28;20465;-72
2023/05/26 10:04:46;;;;;;;1.33;1.30;;;15.90;99.90;;;;;;5037671;28;20547;-72
2023/05/26 10:07:16;;;;;;;1.53;1.40;;;15.90;99.90;;;;;;5044478;28;20605;-71
2023/05/26 10:09:45;;;;;;;2.00;1.90;;;16.00;99.90;;;;;;5038337;28;20465;-72
2023/05/26 10:12:16;;;;;;;3.87;1.30;;;16.10;99.90;;;;;;5040303;28;20472;-72
2023/05/26 10:14:43;;;;;;;0.70;0.70;;;16.20;99.90;;;;;;5038020;28;20499;-72
2023/05/26 10:17:10;;;;;;;1.27;1.17;;;16.20;99.90;;;;;;5037278;28;20464;-72
2023/05/26 10:19:36;;;;;;;4.90;1.57;;;16.30;99.90;;;;;;5043208;28;20463;-71
2023/05/26 10:22:09;;;;;;;1.27;1.27;;;16.40;99.90;;;;;;5035540;28;20467;-72
2023/05/26 10:24:40;;;;;;;6.17;1.47;;;16.30;99.90;;;;;;5034382;28;20566;-72
2023/05/26 10:27:17;;;;;;;5.60;1.53;;;16.40;99.90;;;;;;5038334;28;20499;-71
2023/05/26 10:29:48;;;;;;;4.83;1.43;;;16.30;99.90;;;;;;5032140;28;20451;-71
2023/05/26 10:32:45;;;;;;;3.50;1.23;;;16.20;99.90;;;;;;5032225;28;20874;-71
2023/05/26 10:35:22;;;;;;;1.57;1.40;;;16.20;99.90;;;;;;5031416;28;20488;-71
2023/05/26 10:37:50;;;;;;;5.63;1.40;;;16.20;99.90;;;;;;5031618;28;21258;-72
2023/05/26 10:40:30;;;;;;;0.83;0.83;;;16.30;99.90;;;;;;5032493;28;20557;-72
2023/05/26 10:43:01;;;;;;;1.90;1.30;;;16.50;99.90;;;;;;5032059;28;20869;-72
2023/05/26 10:45:32;;;;;;;1.70;1.43;;;16.50;99.90;;;;;;5031286;28;20973;-72
2023/05/26 10:47:59;;;;;;;4.57;0.87;;;16.50;99.90;;;;;;5031943;28;20507;-72
2023/05/26 10:50:26;;;;;;;1.87;1.13;;;16.60;99.90;;;;;;5031730;28;20977;-72
2023/05/26 10:52:52;;;;;;;1.17;0.70;;;16.60;99.90;;;;;;5031426;28;20497;-72
2023/05/26 10:55:30;;;;;;;0.67;0.67;;;16.60;99.90;;;;;;5041748;28;20464;-72
2023/05/26 10:58:31;;;;;;;3.70;1.70;;;16.60;99.90;;;;;;5051526;28;20460;-73
2023/05/26 11:01:00;;;;;;;1.13;0.80;;;16.40;99.90;;;;;;5045771;28;20467;-72
2023/05/26 11:03:35;;;;;;;8.10;2.33;;;16.40;99.90;;;;;;5042750;28;20484;-72
2023/05/26 11:06:02;;;;;;;5.20;1.73;;;16.60;99.90;;;;;;5050500;28;20497;-71
2023/05/26 11:08:36;;;;;;;1.87;0.93;;;16.60;99.90;;;;;;5051616;28;20468;-72
2023/05/26 11:11:05;;;;;;;1.80;1.30;;;16.60;99.90;;;;;;5051339;28;20464;-72
2023/05/26 11:13:46;;;;;;;1.30;1.30;;;16.70;99.90;;;;;;5039330;28;21001;-71
2023/05/26 11:16:25;;;;;;;1.50;1.07;;;16.70;99.90;;;;;;5048950;28;20467;-71
2023/05/26 11:18:53;;;;;;;1.63;1.53;;;16.90;99.90;;;;;;5048300;28;20456;-71
2023/05/26 11:21:25;;;;;;;2.40;2.20;;;16.70;99.90;;;;;;5038582;28;20533;-71
2023/05/26 11:23:53;;;;;;;0.93;0.93;;;16.80;99.90;;;;;;5036469;28;20543;-71
2023/05/26 11:26:22;;;;;;;5.00;1.37;;;16.80;99.90;;;;;;5030581;28;21036;-70
2023/05/26 11:28:50;;;;;;;4.93;1.57;;;16.90;99.90;;;;;;5031112;28;20835;-71
2023/05/26 11:31:18;;;;;;;2.00;1.40;;;16.90;99.90;;;;;;5030924;28;20491;-71
2023/05/26 11:33:46;;;;;;;3.07;1.10;;;16.90;99.90;;;;;;5035253;28;20992;-71
2023/05/26 11:36:15;;;;;;;2.00;1.60;;;17.10;99.90;;;;;;5041465;28;20460;-71
2023/05/26 11:38:42;;;;;;;2.13;1.77;;;17.20;99.90;;;;;;5050912;28;20794;-72
2023/05/26 11:41:10;;;;;;;2.87;2.23;;;17.30;99.90;;;;;;5046301;28;20464;-72
2023/05/26 11:43:39;;;;;;;2.50;1.27;;;17.30;99.90;;;;;;5042823;28;20503;-71
2023/05/26 11:46:09;;;;;;;2.67;0.97;;;17.30;99.90;;;;;;5038257;28;20508;-71
2023/05/26 11:48:39;;;;;;;4.70;1.70;;;17.20;99.90;;;;;;5050468;28;20547;-71
2023/05/26 11:51:08;;;;;;;11.77;1.87;;;17.40;99.90;;;;;;5049353;28;20500;-71
2023/05/26 11:53:35;;;;;;;1.73;1.63;;;17.50;99.90;;;;;;5040651;28;20522;-71
2023/05/26 11:56:07;;;;;;;1.90;1.50;;;17.60;99.90;;;;;;5041741;28;20452;-71
2023/05/26 11:58:36;;;;;;;1.43;1.40;;;17.60;99.90;;;;;;5046071;28;20537;-70
2023/05/26 12:01:05;;;;;;;1.00;1.00;;;17.40;99.90;;;;;;5041520;28;20456;-71
2023/05/26 12:03:36;;;;;;;1.60;1.50;;;17.40;99.90;;;;;;5049979;28;20488;-72
2023/05/26 12:06:14;;;;;;;5.50;1.50;;;17.60;99.90;;;;;;5045672;28;20548;-72
2023/05/26 12:08:50;;;;;;;3.60;1.80;;;17.70;99.90;;;;;;5043913;28;20455;-72
2023/05/26 12:11:22;;;;;;;1.60;1.40;;;17.70;99.90;;;;;;5050237;28;20514;-71
2023/05/26 12:13:50;;;;;;;2.37;1.53;;;17.70;99.90;;;;;;5049556;28;20515;-72
2023/05/26 12:16:26;;;;;;;0.80;0.80;;;17.50;99.90;;;;;;5038047;28;20480;-71
2023/05/26 12:18:54;;;;;;;2.63;1.43;;;17.70;99.90;;;;;;5030809;28;20495;-72
2023/05/26 12:21:21;;;;;;;3.40;0.97;;;17.80;99.90;;;;;;5029547;28;20492;-71
2023/05/26 12:23:48;;;;;;;3.10;1.30;;;17.90;99.90;;;;;;5028944;28;20969;-71
2023/05/26 12:26:16;;;;;;;1.50;0.93;;;17.90;99.90;;;;;;5029345;28;20484;-71
2023/05/26 12:28:44;;;;;;;0.90;0.70;;;17.90;99.90;;;;;;5036955;28;20481;-71
2023/05/26 12:31:11;;;;;;;6.30;2.10;;;18.00;99.90;;;;;;5047449;28;20597;-71
2023/05/26 12:33:39;;;;;;;1.27;1.27;;;18.10;99.90;;;;;;5049463;28;20484;-72
2023/05/26 12:36:06;;;;;;;0.97;0.90;;;17.90;99.90;;;;;;5048919;28;20465;-71
2023/05/26 12:38:43;;;;;;;1.20;1.20;;;17.90;99.90;;;;;;5049656;28;20549;-72
2023/05/26 12:41:10;;;;;;;1.93;1.83;;;17.80;99.80;;;;;;5045451;28;20572;-72
2023/05/26 12:43:37;;;;;;;4.63;1.70;;;17.70;99.90;;;;;;5040811;28;20491;-71
2023/05/26 12:46:03;;;;;;;5.50;1.53;;;17.60;99.90;;;;;;5049858;28;20551;-72
2023/05/26 12:48:31;;;;;;;4.23;1.60;;;17.60;99.90;;;;;;5049998;28;20517;-71
2023/05/26 12:50:59;;;;;;;7.07;1.87;;;17.70;99.90;;;;;;5049391;28;20555;-72
2023/05/26 12:53:26;;;;;;;5.93;2.50;;;17.70;99.90;;;;;;5053124;28;20484;-72
2023/05/26 12:55:52;;;;;;;3.30;1.87;;;17.60;99.90;;;;;;5042466;28;20461;-72
2023/05/26 12:58:21;;;;;;;4.03;2.37;;;17.70;99.90;;;;;;5033737;28;20468;-72
2023/05/26 13:00:49;;;;;;;4.17;1.80;;;17.80;99.90;;;;;;5033957;28;20563;-71
2023/05/26 13:03:16;;;;;;;2.90;1.43;;;17.80;99.90;;;;;;5040403;28;20490;-72
2023/05/26 13:05:43;;;;;;;2.10;1.83;;;17.90;99.90;;;;;;5046140;28;20479;-72
2023/05/26 13:08:11;;;;;;;1.17;1.17;;;18.00;99.90;;;;;;5053596;28;20460;-71
2023/05/26 13:10:38;;;;;;;2.33;2.17;;;17.80;99.90;;;;;;5053387;28;20514;-72
2023/05/26 13:13:04;;;;;;;3.30;2.23;;;17.80;99.90;;;;;;5053389;28;20561;-71
2023/05/26 13:15:31;;;;;;;3.93;2.30;;;17.90;99.90;;;;;;5052301;28;20467;-72
2023/05/26 13:17:58;;;;;;;1.23;1.23;;;18.00;99.90;;;;;;5039600;28;20828;-73
2023/05/26 13:20:24;;;;;;;3.33;1.93;;;17.90;99.90;;;;;;5044220;28;20460;-70
2023/05/26 13:22:51;;;;;;;2.23;1.83;;;17.90;99.90;;;;;;5041764;28;20505;-71
2023/05/26 13:25:19;;;;;;;4.63;1.70;;;17.80;99.90;;;;;;5032934;28;20476;-71
2023/05/26 13:27:46;;;;;;;3.97;2.40;;;17.80;99.90;;;;;;5027568;28;20560;-71
2023/05/26 13:30:14;;;;;;;1.97;1.83;;;17.90;99.90;;;;;;5039937;28;20506;-71
2023/05/26 13:32:41;;;;;;;4.50;1.47;;;17.80;99.90;;;;;;5039176;28;20555;-71
2023/05/26 13:35:08;;;;;;;2.17;2.17;;;17.70;99.90;;;;;;5049586;28;20483;-72
2023/05/26 13:37:35;;;;;;;2.37;1.83;;;17.70;99.90;;;;;;5052606;28;20460;-72
2023/05/26 13:40:02;;;;;;;1.83;1.73;;;17.80;99.90;;;;;;5053098;28;20483;-72
2023/05/26 13:42:34;;;;;;;4.57;1.87;;;17.80;99.90;;;;;;5052918;28;20460;-72
2023/05/26 13:45:02;;;;;;;1.90;1.80;;;17.90;99.90;;;;;;5047547;28;20868;-72
2023/05/26 13:47:28;;;;;;;8.67;2.30;;;18.00;99.90;;;;;;5036277;28;20930;-72
2023/05/26 13:49:55;;;;;;;2.60;1.93;;;17.90;99.90;;;;;;5052766;28;20460;-72
2023/05/26 13:52:22;;;;;;;2.10;2.00;;;17.90;99.90;;;;;;5051882;28;20518;-72
2023/05/26 13:54:48;;;;;;;3.03;2.03;;;17.70;99.90;;;;;;5051971;28;20530;-72
2023/05/26 13:57:15;;;;;;;6.73;2.20;;;17.80;99.90;;;;;;5052773;28;20488;-72
2023/05/26 13:59:43;;;;;;;2.87;2.53;;;17.90;99.90;;;;;;5039630;28;20869;-71
2023/05/26 14:02:10;;;;;;;2.93;2.03;;;17.90;99.90;;;;;;5040896;28;20469;-72
2023/05/26 14:04:37;;;;;;;5.50;2.27;;;17.80;99.90;;;;;;5043350;28;20475;-71
2023/05/26 14:07:04;;;;;;;4.73;3.17;;;17.70;99.90;;;;;;5051469;28;20480;-70
2023/05/26 14:09:31;;;;;;;8.80;2.57;;;17.60;99.90;;;;;;5052566;28;20460;-72
2023/05/26 14:11:58;;;;;;;1.90;1.80;;;17.60;99.90;;;;;;5052401;28;20460;-72
2023/05/26 14:14:25;;;;;;;7.40;2.23;;;17.60;99.90;;;;;;5042995;28;20484;-72
2023/05/26 14:16:53;;;;;;;2.00;1.80;;;17.80;99.90;;;;;;5043384;28;20548;-72
2023/05/26 14:19:20;;;;;;;2.27;1.77;;;17.80;99.90;;;;;;5044034;28;20543;-72
2023/05/26 14:21:47;;;;;;;2.10;2.00;;;17.90;99.90;;;;;;5051145;28;20943;-72
2023/05/26 14:24:14;;;;;;;1.27;1.27;;;17.90;99.90;;;;;;5038968;28;20579;-72
2023/05/26 14:26:41;;;;;;;2.73;1.83;;;17.80;99.90;;;;;;5045648;28;20506;-72
2023/05/26 14:29:08;;;;;;;1.70;1.23;;;17.80;99.90;;;;;;5052131;28;20547;-72
2023/05/26 14:31:35;;;;;;;3.30;2.30;;;17.80;99.90;;;;;;5037993;28;20575;-71
2023/05/26 14:34:04;;;;;;;4.93;2.60;;;17.90;99.90;;;;;;5048013;28;20491;-71
2023/05/26 14:36:31;;;;;;;1.33;1.07;;;17.90;99.90;;;;;;5051377;28;20808;-71
2023/05/26 14:38:59;;;;;;;8.13;3.83;;;18.00;99.90;;;;;;5052337;28;20464;-71
2023/05/26 14:41:27;;;;;;;2.80;2.60;;;18.10;99.90;;;;;;5051846;28;20864;-72
2023/05/26 14:43:53;;;;;;;1.90;1.77;;;18.10;99.90;;;;;;5049199;28;20527;-71
2023/05/26 14:46:20;;;;;;;1.90;1.20;;;18.20;99.90;;;;;;5042241;28;20976;-71
2023/05/26 14:48:47;;;;;;;8.60;2.33;;;18.40;99.90;;;;;;5051788;28;20471;-72
2023/05/26 14:51:15;;;;;;;2.10;1.70;;;18.50;99.90;;;;;;5048334;28;20472;-71
2023/05/26 14:53:42;;;;;;;1.50;1.40;;;18.40;99.90;;;;;;5042726;28;20476;-71
2023/05/26 14:56:10;;;;;;;4.83;1.87;;;18.30;99.90;;;;;;5051496;28;20983;-71
2023/05/26 14:58:37;;;;;;;3.73;1.60;;;18.30;99.90;;;;;;5051671;28;20464;-72
2023/05/26 15:01:04;;;;;;;1.83;1.73;;;18.20;99.90;;;;;;5046854;28;20468;-72
2023/05/26 15:03:31;;;;;;;1.20;1.20;;;18.30;99.90;;;;;;5043083;28;20484;-72
2023/05/26 15:05:57;;;;;;;2.93;1.70;;;18.40;99.90;;;;;;5050542;28;20514;-71
2023/05/26 15:08:25;;;;;;;3.13;2.37;;;18.50;99.90;;;;;;5051282;28;20471;-70
2023/05/26 15:10:52;;;;;;;3.13;1.97;;;18.50;99.90;;;;;;5051115;28;20468;-71
2023/05/26 15:13:19;;;;;;;1.87;1.77;;;18.50;99.90;;;;;;5050333;28;20893;-71
2023/05/26 15:15:46;;;;;;;4.03;1.63;;;18.50;99.90;;;;;;5044302;28;20476;-71
2023/05/26 15:18:12;;;;;;;3.40;2.50;;;18.70;99.90;;;;;;5042977;28;20456;-72
2023/05/26 15:20:39;;;;;;;1.90;1.70;;;18.60;99.90;;;;;;5049835;28;20518;-72
2023/05/26 15:23:06;;;;;;;6.30;2.40;;;18.50;99.90;;;;;;5047785;28;20545;-71
2023/05/26 15:25:34;;;;;;;1.53;1.33;;;18.20;99.90;;;;;;5030445;28;20453;-72
2023/05/26 15:28:01;;;;;;;1.10;1.10;;;18.20;99.90;;;;;;5030918;28;20496;-71
2023/05/26 15:30:28;;;;;;;3.53;1.90;;;18.30;99.90;;;;;;5037806;28;20515;-72
2023/05/26 15:32:54;;;;;;;1.30;1.17;;;18.30;99.90;;;;;;5046484;28;20786;-71
2023/05/26 15:35:21;;;;;;;2.37;2.17;;;18.30;99.90;;;;;;5050052;28;20506;-72
2023/05/26 15:37:48;;;;;;;4.33;2.00;;;18.40;99.90;;;;;;5050538;28;20526;-71
2023/05/26 15:40:14;;;;;;;3.33;3.03;;;18.40;99.90;;;;;;5051142;28;20463;-72
2023/05/26 15:42:42;;;;;;;6.50;1.87;;;18.50;99.90;;;;;;5051158;28;20521;-72
2023/05/26 15:45:10;;;;;;;1.70;1.60;;;18.50;99.90;;;;;;5039889;28;20472;-71
2023/05/26 15:47:37;;;;;;;2.30;2.10;;;18.60;99.90;;;;;;5043560;28;20492;-71
2023/05/26 15:50:05;;;;;;;1.70;1.57;;;18.50;99.90;;;;;;5050726;28;20472;-71
2023/05/26 15:52:31;;;;;;;1.33;1.30;;;18.50;99.90;;;;;;5050270;28;20492;-71
2023/05/26 15:54:58;;;;;;;7.63;3.27;;;18.50;99.90;;;;;;5049986;28;20464;-72
2023/05/26 15:57:25;;;;;;;1.67;1.57;;;18.60;99.90;;;;;;5048899;28;20959;-72
2023/05/26 15:59:53;;;;;;;2.17;2.07;;;18.60;99.90;;;;;;5042431;28;20865;-72
2023/05/26 16:02:22;;;;;;;3.57;1.67;;;18.60;99.90;;;;;;5050720;28;20503;-72
2023/05/26 16:04:48;;;;;;;1.57;1.47;;;18.60;99.90;;;;;;5049672;28;20524;-71
2023/05/26 16:07:16;;;;;;;2.53;2.23;;;18.60;99.90;;;;;;5049334;28;20488;-71
2023/05/26 16:09:43;;;;;;;1.50;1.10;;;18.50;99.90;;;;;;5050417;28;20457;-71
2023/05/26 16:12:09;;;;;;;2.47;1.63;;;18.40;99.90;;;;;;5046272;28;20973;-71
2023/05/26 16:14:39;;;;;;;5.43;2.27;;;18.40;99.90;;;;;;5041555;28;20484;-73
2023/05/26 16:17:07;;;;;;;3.60;1.70;;;18.50;99.90;;;;;;5041821;28;20808;-71
2023/05/26 16:19:34;;;;;;;1.53;1.43;;;18.50;99.90;;;;;;5050360;28;20464;-71
2023/05/26 16:22:01;;;;;;;1.77;1.63;;;18.30;99.90;;;;;;5049558;28;20657;-71
2023/05/26 16:24:28;;;;;;;2.43;1.40;;;18.20;99.90;;;;;;5035516;28;20530;-72
2023/05/26 16:26:55;;;;;;;1.63;1.53;;;18.20;99.90;;;;;;5030633;28;20484;-72
2023/05/26 16:29:22;;;;;;;2.67;2.47;;;18.20;99.90;;;;;;5045177;28;20488;-72
2023/05/26 16:31:49;;;;;;;1.23;1.23;;;18.10;99.90;;;;;;5054567;28;20548;-72
2023/05/26 16:34:17;;;;;;;1.17;1.03;;;18.10;99.90;;;;;;5054558;28;20483;-72
2023/05/26 16:36:44;;;;;;;2.37;1.53;;;18.30;99.90;;;;;;5053594;28;20468;-72
2023/05/26 16:39:11;;;;;;;2.40;1.23;;;18.40;99.90;;;;;;5054449;28;20949;-72
2023/05/26 16:41:38;;;;;;;1.43;0.90;;;18.20;99.90;;;;;;5047826;28;20537;-72
2023/05/26 16:44:04;;;;;;;1.23;1.20;;;18.10;99.90;;;;;;5045222;28;20479;-72
2023/05/26 16:46:31;;;;;;;4.77;1.23;;;17.90;99.90;;;;;;5053671;28;20499;-72
2023/05/26 16:48:58;;;;;;;0.80;0.80;;;17.90;99.90;;;;;;5054480;28;20460;-72
2023/05/26 16:51:26;;;;;;;8.33;1.40;;;17.90;99.90;;;;;;5053234;28;20952;-72